Dauphin Barker Airport

CYDN · 曼尼托巴, 加拿大

罗盘
风向 的 风向 060° Dauphin Barker Airport 14/32
风: 6 kt, 2 beaufort


6 kt
改变
0 ft 2.000 4.000 6.000 8.000 10.000
Cloud Cloud Cloud Cloud
SCT 8.600
METAR CYDN 210000Z AUTO 06006KT 9SM SCT086 12/08 A2989 RMK SLP131

METAR Dauphin Barker Airport - CYDN/YDN

Dauphin Barker Airport是,加拿大中的中型机场。 该机场位于纬度51,10412和经度-100,05201。 该机场有3条跑道: 14/32, 2/20 和 8/26. 本场的ICAO机场代码为CYDN。 该机场的IATA代码为YDN。 机场在Winnipeg FIR中。

该航空气象观测是针对Dauphin Barker Airport在2024年5月20日 19:00, 当地时间进行的。

机场观察

风向为060°,速度为6 kt。

可见度为9 mi。

有疏云,零星散落的云朵在8.600 ft的高度。 没有观察到天花板。

温度和风寒是12 °C。 露点为8 °C,相对湿度为77%。 海平面上的气压为29,89 inHg (QNH)。

白天

今天,太阳从05:40升起,在21:33降落。 这适用于Dauphin Barker Airport,世界夏令时可能有所不同。 当地时间与世界标准时间之间的时差为-5 小时。 夏令时目前正在进行中。

公司介绍

我们没有关于这个机场的公司信息。

体会

到Vliegles.nl去找飞行课程,跳伞和其他飞行体验。 浏览页面,了解Dauphin Barker Airport附近所有可用的活动。 你也可以使用搜索功能来寻找你所在地附近的特定飞行课程、跳伞或其他飞行体验。

跑道

Id 标题 侧风 逆风 侧风 %
14/32 150°-330° 6 kt 100 %
2/20 030°-210° 3 kt 5 kt 50 %
8/26 090°-270° 3 kt 5 kt 50 %

逆风成分最大的方向会被突出显示,并用于横风计算。 这并不一定意味着这个方向在使用。

乌云

8.600 ft SCT 疏云,零星散落的云朵

温度 & 天气

温度 12 °C
露点 8 °C
相对湿度 77%
Kp-index 0 (0-9)

评论

SLP131海平面压力为29,92 inHg (29,92 inHg)

白天

日出
05:40 (10:23)
中午
13:36
日落
21:33

小工具

你想在你的网站上有一个关于Dauphin Barker Airport的当前航空天气(METAR)的小部件吗?

显示HTML代码
报告变更